FW4777 Weather Reports


Display with metric or nautical units.
time (UTC)temp
F
wind
direction
speed
MPH
gust
MPH
rain 1hr
in
rain 24hr
in
rain mn
in
humidity
%
barometer
mb
20210925233224 87 90 3.0 3.0 0.00 0.00 0.00 18 1028.9
20210925232221 87 113 3.0 4.0 0.00 0.00 0.00 18 1028.6
20210925231231 88 90 3.0 3.0 0.00 0.00 0.00 18 1028.5
20210925230227 87 113 6.0 6.0 0.00 0.00 0.00 18 1028.3
20210925225217 86 113 5.0 6.0 0.00 0.00 0.00 18 1028.1
20210925224218 0 104 6.0 6.0 0.00 0.00 0.00 1027.9
20210925223227 86 105 6.0 9.0 0.00 0.00 0.00 18 1027.1
20210925222218 87 98 4.0 7.0 0.00 0.00 0.00 18 1027.1
20210925221233 87 95 4.0 4.0 0.00 0.00 0.00 18 1026.3
20210925220227 87 113 4.0 4.0 0.00 0.00 0.00 17 1025.9
20210925215217 87 70 3.0 4.0 0.00 0.00 0.00 18 1025.5
20210925214231 86 104 4.0 5.0 0.00 0.00 0.00 19 1024.8
20210925213228 87 6.0 7.0 0.00 0.00 0.00 18 1024.1
20210925212225 88 102 6.0 8.0 0.00 0.00 0.00 19 1024.1
20210925211220 87 113 5.0 6.0 0.00 0.00 0.00 19 1023.5
20210925210222 87 90 4.0 5.0 0.00 0.00 0.00 19 1023.0
20210925205220 87 113 4.0 5.0 0.00 0.00 0.00 18 1022.6
20210925204228 87 90 5.0 6.0 0.00 0.00 0.00 18 1022.1
20210925203219 87 85 4.0 5.0 0.00 0.00 0.00 18 1022.1
20210925202215 86 113 6.0 7.0 0.00 0.00 0.00 18 1021.8
20210925201219 86 113 7.0 9.0 0.00 0.00 0.00 19 1020.9
20210925200227 86 135 3.0 4.0 0.00 0.00 0.00 19 1020.3
20210925195221 86 113 3.0 4.0 0.00 0.00 0.00 19 1020.1
20210925194218 86 113 4.0 5.0 0.00 0.00 0.00 19 1019.6
20210925193233 86 45 4.0 5.0 0.00 0.00 0.00 20 1019.6
20210925192229 85 180 2.0 3.0 0.00 0.00 0.00 20 1018.9
20210925191219 84 102 3.0 3.0 0.00 0.00 0.00 20 1018.0
20210925190221 85 125 3.0 3.0 0.00 0.00 0.00 19 1017.1
20210925185218 84 113 3.0 4.0 0.00 0.00 0.00 20 1016.7
20210925184228 83 203 3.0 4.0 0.00 0.00 0.00 21 1016.4
20210925183232 81 113 5.0 5.0 0.00 0.00 0.00 20 1016.4
20210925182221 81 113 4.0 5.0 0.00 0.00 0.00 22 1015.7
20210925181217 81 121 4.0 4.0 0.00 0.00 0.00 23 1014.7
20210925180220 80 113 4.0 4.0 0.00 0.00 0.00 23 1013.5
20210925175222 79 113 6.0 6.0 0.00 0.00 0.00 24 1012.7
20210925174219 79 125 2.0 3.0 0.00 0.00 0.00 25 1012.3
20210925173227 78 113 3.0 3.0 0.00 0.00 0.00 26 1012.3
20210925172223 78 113 4.0 5.0 0.00 0.00 0.00 26 1011.5
20210925171227 78 169 4.0 4.0 0.00 0.00 0.00 25 1010.6
20210925170223 77 158 2.0 3.0 0.00 0.00 0.00 27 1009.7
20210925165217 76 212 2.0 3.0 0.00 0.00 0.00 31 1009.1
20210925164232 75 158 3.0 5.0 0.00 0.00 0.00 33 1008.4
20210925163228 73 135 2.0 3.0 0.00 0.00 0.00 35 1008.4
20210925162222 73 180 2.0 3.0 0.00 0.00 0.00 34 1007.8
20210925161220 71 225 2.0 2.0 0.00 0.00 0.00 34 1007.3
20210925160223 70 1.0 2.0 0.00 0.00 0.00 38 1006.8
20210925155219 69 135 2.0 3.0 0.00 0.00 0.00 40 1006.1
20210925154215 68 0.0 1.0 0.00 0.00 0.00 39 1005.8
20210925153229 67 135 2.0 2.0 0.00 0.00 0.00 44 1005.8
20210925152222 64 146 2.0 2.0 0.00 0.00 0.00 46 1005.3
20210925151233 65 113 1.0 2.0 0.00 0.00 0.00 44 1005.0
20210925150230 63 158 2.0 3.0 0.00 0.00 0.00 47 1004.4
20210925145220 62 338 2.0 2.0 0.00 0.00 0.00 50 1004.1
20210925144216 60 0.0 0.0 0.00 0.00 0.00 52 1003.8
20210925143227 59 0.0 0.0 0.00 0.00 0.00 54 1003.8
20210925142221 56 0.0 0.0 0.00 0.00 0.00 58 1003.3
20210925141219 51 0.0 0.0 0.00 0.00 0.00 67 1002.8
20210925140228 50 293 3.0 3.0 0.00 0.00 0.00 69 1002.4
20210925135219 48 293 2.0 2.0 0.00 0.00 0.00 72 1002.0
20210925134233 46 0.0 0.0 0.00 0.00 0.00 73 1001.9
20210925133227 45 0.0 0.0 0.00 0.00 0.00 74 1001.9
20210925132218 45 270 2.0 2.0 0.00 0.00 0.00 75 1002.0
20210925131232 45 270 2.0 2.0 0.00 0.00 0.00 76 1002.3
20210925130224 44 270 3.0 3.0 0.00 0.00 0.00 76 1002.4
20210925125221 44 270 2.0 2.0 0.00 0.00 0.00 76 1002.7
20210925124230 45 0.0 0.0 0.00 0.00 0.00 75 1002.9
20210925123222 45 270 2.0 2.0 0.00 0.00 0.00 74 1002.9
20210925122227 45 270 2.0 2.0 0.00 0.00 0.00 73 1003.0
20210925121218 46 270 2.0 2.0 0.00 0.00 0.00 72 1003.2
20210925120222 45 282 3.0 3.0 0.00 0.00 0.00 74 1003.5
20210925115217 45 281 3.0 3.0 0.00 0.00 0.00 74 1003.8
20210925114230 46 270 2.0 2.0 0.00 0.00 0.00 74 1004.2
20210925113221 45 270 4.0 4.0 0.00 0.00 0.00 74 1004.2
20210925112217 45 270 2.0 2.0 0.00 0.00 0.00 74 1004.6
20210925111227 45 270 2.0 3.0 0.00 0.00 0.00 73 1004.8
20210925110217 46 0.0 0.0 0.00 0.00 0.00 72 1005.0
20210925105221 46 0.0 0.0 0.00 0.00 0.00 71 1005.0
20210925104233 46 270 1.0 1.0 0.00 0.00 0.00 71 1005.3
20210925103219 47 2.0 2.0 0.00 0.00 0.00 71 1005.3
20210925102216 47 270 3.0 3.0 0.00 0.00 0.00 71 1005.6
20210925101231 47 270 2.0 3.0 0.00 0.00 0.00 70 1006.1
20210925100227 47 270 3.0 3.0 0.00 0.00 0.00 70 1006.6
20210925095223 47 0.0 0.0 0.00 0.00 0.00 70 1007.0
20210925094226 47 282 3.0 3.0 0.00 0.00 0.00 70 1007.3
20210925093226 47 0.0 0.0 0.00 0.00 0.00 70 1007.3
20210925092222 47 270 1.0 2.0 0.00 0.00 0.00 69 1007.4
20210925091231 48 270 2.0 2.0 0.00 0.00 0.00 68 1007.8
20210925090228 48 281 4.0 4.0 0.00 0.00 0.00 69 1008.6
20210925085216 47 285 2.0 2.0 0.00 0.00 0.00 70 1008.8
20210925084219 47 0.0 0.0 0.00 0.00 0.00 69 1009.1
20210925083222 48 248 3.0 3.0 0.00 0.00 0.00 70 1009.1
20210925082231 48 284 2.0 3.0 0.00 0.00 0.00 70 1009.6
20210925081227 47 293 3.0 4.0 0.00 0.00 0.00 71 1010.1
20210925080223 47 270 3.0 3.0 0.00 0.00 0.00 71 1010.7
20210925075228 47 270 1.0 2.0 0.00 0.00 0.00 72 1011.2
20210925074221 47 0.0 0.0 0.00 0.00 0.00 71 1011.5
20210925073225 47 0.0 0.0 0.00 0.00 0.00 70 1011.5
20210925072223 47 0.0 0.0 0.00 0.00 0.00 70 1011.9
20210925071230 48 0.0 0.0 0.00 0.00 0.00 70 1012.3
20210925070225 48 0.0 0.0 0.00 0.00 0.00 69 1012.5
20210925065217 49 0.0 0.0 0.00 0.00 0.00 69 1012.9
20210925064224 49 270 2.0 2.0 0.00 0.00 0.00 69 1013.3
20210925063221 49 0.0 0.0 0.00 0.00 0.00 69 1013.3
20210925062230 49 0.0 0.0 0.00 0.00 0.00 68 1013.5
20210925061220 50 0.0 0.0 0.00 0.00 0.00 67 1013.9
20210925060227 50 0.0 0.0 0.00 0.00 0.00 67 1014.3
20210925055523 50 0.0 0.0 0.00 0.00 0.00 66 1014.5
20210925054519 50 0.0 0.0 0.00 0.00 0.00 66 1014.5
20210925053531 0 0.0 0.0 0.00 0.00 0.00 1014.9
20210925052623 51 0.0 0.0 0.00 0.00 0.00 65 1015.2
20210925051631 52 0.0 0.0 0.00 0.00 0.00 62 1015.5
20210925050628 53 0.0 0.0 0.00 0.00 0.00 61 1015.7
20210925045619 53 0.0 0.0 0.00 0.00 0.00 61 1015.7
20210925044615 54 270 2.0 2.0 0.00 0.00 0.00 59 1016.1
20210925043627 55 270 2.0 2.0 0.00 0.00 0.00 59 1016.2
20210925042618 55 270 2.0 3.0 0.00 0.00 0.00 58 1016.4
20210925041633 56 270 2.0 2.0 0.00 0.00 0.00 57 1016.5
20210925040623 56 270 3.0 3.0 0.00 0.00 0.00 55 1017.0
20210925035633 56 270 3.0 4.0 0.00 0.00 0.00 55 1017.0
20210925034628 57 270 3.0 3.0 0.00 0.00 0.00 55 1017.5
20210925033621 57 270 3.0 3.0 0.00 0.00 0.00 55 1018.0
20210925032631 57 270 3.0 3.0 0.00 0.00 0.00 54 1018.3
20210925031629 57 270 2.0 3.0 0.00 0.00 0.00 54 1018.6
20210925030620 57 270 2.0 3.0 0.00 0.00 0.00 53 1018.6
20210925025629 58 270 1.0 2.0 0.00 0.00 0.00 53 1018.6
20210925024623 59 270 2.0 3.0 0.00 0.00 0.00 53 1018.9
20210925023621 59 281 3.0 3.0 0.00 0.00 0.00 52 1019.0
20210925022623 59 270 3.0 3.0 0.00 0.00 0.00 52 1019.2
20210925021632 60 270 2.0 2.0 0.00 0.00 0.00 51
20210925020623 60 0.0 0.0 0.00 0.00 0.00 49 1019.2
20210925015618 62 0.0 0.0 0.00 0.00 0.00 47 1019.2
20210925014627 62 0.0 0.0 0.00 0.00 0.00 46 1019.4
20210925013633 63 270 2.0 2.0 0.00 0.00 0.00 45 1019.4
20210925012630 64 293 2.0 3.0 0.00 0.00 0.00 43 1019.5
20210925011621 65 338 2.0 4.0 0.00 0.00 0.00 42 1019.8
20210925010617 66 308 2.0 3.0 0.00 0.00 0.00 41 1020.0
20210925005623 67 293 3.0 3.0 0.00 0.00 0.00 39 1020.0
20210925004623 69 0 1.0 2.0 0.00 0.00 0.00 37 1020.1
20210925003618 70 315 2.0 2.0 0.00 0.00 0.00 36 1020.2
20210925002616 72 293 2.0 2.0 0.00 0.00 0.00 34 1020.2
20210925001630 73 321 2.0 3.0 0.00 0.00 0.00 33 1020.4
20210925000626 75 311 3.0 4.0 0.00 0.00 0.00 32 1020.6
20210924235618 77 0 2.0 3.0 0.00 0.00 0.00 30 1020.6
20210924234617 77 270 1.0 2.0 0.00 0.00 0.00 30 1020.6
20210924233620 77 90 2.0 2.0 0.00 0.00 0.00 30 1020.2